sensor_id;sensor_type;location;lat;lon;timestamp;pressure;altitude;pressure_sealevel;temperature;humidity
5609;BME280;2826;51.354;9.588;2023-07-02T00:01:11;97275.84;;;18.03;91.25
5609;BME280;2826;51.354;9.588;2023-07-02T00:03:38;97274.19;;;18.02;91.08
5609;BME280;2826;51.354;9.588;2023-07-02T00:06:06;97275.16;;;18.01;91.00
5609;BME280;2826;51.354;9.588;2023-07-02T00:08:33;97274.75;;;18.06;90.74
5609;BME280;2826;51.354;9.588;2023-07-02T00:10:59;97279.91;;;18.08;91.18
5609;BME280;2826;51.354;9.588;2023-07-02T00:13:26;97271.06;;;18.09;91.25
5609;BME280;2826;51.354;9.588;2023-07-02T00:15:52;97274.97;;;18.14;91.02
5609;BME280;2826;51.354;9.588;2023-07-02T00:18:19;97267.22;;;18.13;90.27
5609;BME280;2826;51.354;9.588;2023-07-02T00:20:45;97276.94;;;18.22;89.98
5609;BME280;2826;51.354;9.588;2023-07-02T00:23:13;97274.44;;;18.21;89.76
5609;BME280;2826;51.354;9.588;2023-07-02T00:25:40;97280.53;;;18.21;89.78
5609;BME280;2826;51.354;9.588;2023-07-02T00:28:07;97276.69;;;18.25;90.11
5609;BME280;2826;51.354;9.588;2023-07-02T00:30:33;97277.25;;;18.29;90.62
5609;BME280;2826;51.354;9.588;2023-07-02T00:33:00;97282.22;;;18.32;90.66
5609;BME280;2826;51.354;9.588;2023-07-02T00:35:27;97276.97;;;18.32;90.46
5609;BME280;2826;51.354;9.588;2023-07-02T00:37:54;97283.31;;;18.30;90.54
5609;BME280;2826;51.354;9.588;2023-07-02T00:40:22;97284.16;;;18.30;90.26
5609;BME280;2826;51.354;9.588;2023-07-02T00:42:48;97282.22;;;18.32;90.74
5609;BME280;2826;51.354;9.588;2023-07-02T00:45:15;97272.28;;;18.36;90.92
5609;BME280;2826;51.354;9.588;2023-07-02T00:47:42;97274.09;;;18.35;90.28
5609;BME280;2826;51.354;9.588;2023-07-02T00:50:10;97269.53;;;18.37;90.70
5609;BME280;2826;51.354;9.588;2023-07-02T00:52:37;97281.00;;;18.36;90.78
5609;BME280;2826;51.354;9.588;2023-07-02T00:55:05;97282.78;;;18.36;91.08
5609;BME280;2826;51.354;9.588;2023-07-02T00:57:33;97284.19;;;18.40;90.83
5609;BME280;2826;51.354;9.588;2023-07-02T01:00:00;97278.94;;;18.40;91.17
5609;BME280;2826;51.354;9.588;2023-07-02T01:02:27;97286.00;;;18.39;91.75
5609;BME280;2826;51.354;9.588;2023-07-02T01:04:56;97278.25;;;18.38;91.93
5609;BME280;2826;51.354;9.588;2023-07-02T01:07:25;97281.56;;;18.40;91.63
5609;BME280;2826;51.354;9.588;2023-07-02T01:09:51;97282.66;;;18.37;91.82
5609;BME280;2826;51.354;9.588;2023-07-02T01:12:20;97285.28;;;18.37;91.78
5609;BME280;2826;51.354;9.588;2023-07-02T01:14:51;97282.66;;;18.37;91.92
5609;BME280;2826;51.354;9.588;2023-07-02T01:17:19;97281.13;;;18.35;92.04
5609;BME280;2826;51.354;9.588;2023-07-02T01:19:49;97292.34;;;18.37;92.44
5609;BME280;2826;51.354;9.588;2023-07-02T01:22:17;97284.47;;;18.37;91.96
5609;BME280;2826;51.354;9.588;2023-07-02T01:24:45;97279.59;;;18.32;91.91
5609;BME280;2826;51.354;9.588;2023-07-02T01:27:13;97289.00;;;18.35;92.01
5609;BME280;2826;51.354;9.588;2023-07-02T01:29:41;97289.00;;;18.35;91.36
5609;BME280;2826;51.354;9.588;2023-07-02T01:32:08;97291.19;;;18.30;91.34
5609;BME280;2826;51.354;9.588;2023-07-02T01:34:35;97278.75;;;18.32;91.23
5609;BME280;2826;51.354;9.588;2023-07-02T01:37:03;97284.00;;;18.32;91.23
5609;BME280;2826;51.354;9.588;2023-07-02T01:39:30;97271.69;;;18.22;91.34
5609;BME280;2826;51.354;9.588;2023-07-02T01:42:07;97287.47;;;18.32;91.29
5609;BME280;2826;51.354;9.588;2023-07-02T01:44:34;97282.34;;;18.31;90.74
5609;BME280;2826;51.354;9.588;2023-07-02T01:47:01;97284.97;;;18.31;90.79
5609;BME280;2826;51.354;9.588;2023-07-02T01:49:27;97293.94;;;18.28;90.94
5609;BME280;2826;51.354;9.588;2023-07-02T01:51:55;97294.66;;;18.30;91.17
5609;BME280;2826;51.354;9.588;2023-07-02T01:54:25;97298.22;;;18.29;91.10
5609;BME280;2826;51.354;9.588;2023-07-02T01:56:53;97288.00;;;18.26;90.94
5609;BME280;2826;51.354;9.588;2023-07-02T01:59:19;97296.69;;;18.26;91.18
5609;BME280;2826;51.354;9.588;2023-07-02T02:01:46;97296.97;;;18.23;91.08
5609;BME280;2826;51.354;9.588;2023-07-02T02:04:13;97294.34;;;18.23;91.13
5609;BME280;2826;51.354;9.588;2023-07-02T02:06:40;97303.16;;;18.22;91.03
5609;BME280;2826;51.354;9.588;2023-07-02T02:09:08;97298.03;;;18.21;90.97
5609;BME280;2826;51.354;9.588;2023-07-02T02:11:39;97294.63;;;18.20;91.39
5609;BME280;2826;51.354;9.588;2023-07-02T02:14:07;97249.44;;;17.95;91.30
5609;BME280;2826;51.354;9.588;2023-07-02T02:16:34;97288.41;;;18.21;91.25
5609;BME280;2826;51.354;9.588;2023-07-02T02:19:02;97271.31;;;18.06;91.18
5609;BME280;2826;51.354;9.588;2023-07-02T02:21:29;97284.19;;;18.09;91.21
5609;BME280;2826;51.354;9.588;2023-07-02T02:23:56;97298.47;;;18.16;91.02
5609;BME280;2826;51.354;9.588;2023-07-02T02:26:22;97303.16;;;18.12;90.81
5609;BME280;2826;51.354;9.588;2023-07-02T02:28:52;97280.22;;;17.93;90.42
5609;BME280;2826;51.354;9.588;2023-07-02T02:31:19;97305.28;;;18.07;90.72
5609;BME280;2826;51.354;9.588;2023-07-02T02:33:45;97295.66;;;18.08;90.54
5609;BME280;2826;51.354;9.588;2023-07-02T02:36:12;97298.16;;;18.09;89.78
5609;BME280;2826;51.354;9.588;2023-07-02T02:38:39;97300.03;;;18.07;89.53
5609;BME280;2826;51.354;9.588;2023-07-02T02:41:05;97299.47;;;18.03;89.94
5609;BME280;2826;51.354;9.588;2023-07-02T02:43:41;97303.31;;;17.99;89.73
5609;BME280;2826;51.354;9.588;2023-07-02T02:46:09;97302.50;;;17.99;89.51
5609;BME280;2826;51.354;9.588;2023-07-02T02:48:35;97300.25;;;17.94;89.53
5609;BME280;2826;51.354;9.588;2023-07-02T02:51:02;97303.00;;;17.93;89.82
5609;BME280;2826;51.354;9.588;2023-07-02T02:53:29;97293.84;;;17.87;89.73
5609;BME280;2826;51.354;9.588;2023-07-02T02:55:55;97297.31;;;17.87;89.93
5609;BME280;2826;51.354;9.588;2023-07-02T02:58:22;97302.53;;;17.87;89.49
5609;BME280;2826;51.354;9.588;2023-07-02T03:00:49;97306.25;;;17.85;89.79
5609;BME280;2826;51.354;9.588;2023-07-02T03:03:18;97305.53;;;17.83;89.39
5609;BME280;2826;51.354;9.588;2023-07-02T03:05:45;97301.25;;;17.82;89.50
5609;BME280;2826;51.354;9.588;2023-07-02T03:08:13;97309.25;;;17.80;89.27
5609;BME280;2826;51.354;9.588;2023-07-02T03:10:40;97303.19;;;17.80;89.60
5609;BME280;2826;51.354;9.588;2023-07-02T03:13:07;97301.66;;;17.77;89.38
5609;BME280;2826;51.354;9.588;2023-07-02T03:15:34;97305.22;;;17.76;89.23
5609;BME280;2826;51.354;9.588;2023-07-02T03:18:00;97311.44;;;17.75;89.13
5609;BME280;2826;51.354;9.588;2023-07-02T03:20:28;97262.38;;;17.44;89.53
5609;BME280;2826;51.354;9.588;2023-07-02T03:22:55;97315.38;;;17.69;89.71
5609;BME280;2826;51.354;9.588;2023-07-02T03:25:22;97311.63;;;17.62;90.48
5609;BME280;2826;51.354;9.588;2023-07-02T03:27:48;97315.06;;;17.62;90.20
5609;BME280;2826;51.354;9.588;2023-07-02T03:30:15;97314.38;;;17.60;90.20
5609;BME280;2826;51.354;9.588;2023-07-02T03:32:42;97311.88;;;17.59;90.43
5609;BME280;2826;51.354;9.588;2023-07-02T03:35:08;97300.81;;;17.55;90.21
5609;BME280;2826;51.354;9.588;2023-07-02T03:37:36;97306.19;;;17.54;90.62
5609;BME280;2826;51.354;9.588;2023-07-02T03:40:04;97295.25;;;17.48;90.76
5609;BME280;2826;51.354;9.588;2023-07-02T03:42:32;97280.72;;;17.44;90.47
5609;BME280;2826;51.354;9.588;2023-07-02T03:44:59;97286.22;;;17.41;90.84
5609;BME280;2826;51.354;9.588;2023-07-02T03:47:25;97293.38;;;17.39;90.46
5609;BME280;2826;51.354;9.588;2023-07-02T03:49:52;97294.72;;;17.33;90.74
5609;BME280;2826;51.354;9.588;2023-07-02T03:52:19;97294.97;;;17.30;90.90
5609;BME280;2826;51.354;9.588;2023-07-02T03:54:47;97300.06;;;17.32;90.96
5609;BME280;2826;51.354;9.588;2023-07-02T03:57:13;97295.69;;;17.32;90.73
5609;BME280;2826;51.354;9.588;2023-07-02T03:59:40;97304.75;;;17.28;90.40
5609;BME280;2826;51.354;9.588;2023-07-02T04:02:07;97295.91;;;17.29;90.54
5609;BME280;2826;51.354;9.588;2023-07-02T04:04:34;97298.53;;;17.29;90.76
5609;BME280;2826;51.354;9.588;2023-07-02T04:07:01;97264.34;;;17.09;90.36
5609;BME280;2826;51.354;9.588;2023-07-02T04:09:27;97309.94;;;17.40;90.48
5609;BME280;2826;51.354;9.588;2023-07-02T04:11:56;97321.38;;;17.39;90.60
5609;BME280;2826;51.354;9.588;2023-07-02T04:14:22;97322.22;;;17.39;90.21
5609;BME280;2826;51.354;9.588;2023-07-02T04:16:49;97318.50;;;17.42;89.84
5609;BME280;2826;51.354;9.588;2023-07-02T04:19:16;97322.91;;;17.41;89.85
5609;BME280;2826;51.354;9.588;2023-07-02T04:21:42;97320.41;;;17.40;90.01
5609;BME280;2826;51.354;9.588;2023-07-02T04:24:09;97333.28;;;17.43;89.58
5609;BME280;2826;51.354;9.588;2023-07-02T04:26:35;97321.69;;;17.45;89.55
5609;BME280;2826;51.354;9.588;2023-07-02T04:29:04;97322.09;;;17.41;89.99
5609;BME280;2826;51.354;9.588;2023-07-02T04:31:30;97325.75;;;17.49;89.17
5609;BME280;2826;51.354;9.588;2023-07-02T04:33:57;97332.75;;;17.49;89.28
5609;BME280;2826;51.354;9.588;2023-07-02T04:36:24;97348.47;;;17.49;88.99
5609;BME280;2826;51.354;9.588;2023-07-02T04:38:51;97353.47;;;17.52;88.86
5609;BME280;2826;51.354;9.588;2023-07-02T04:41:18;97355.97;;;17.54;89.14
5609;BME280;2826;51.354;9.588;2023-07-02T04:43:45;97363.47;;;17.58;88.78
5609;BME280;2826;51.354;9.588;2023-07-02T04:46:13;97371.19;;;17.60;88.86
5609;BME280;2826;51.354;9.588;2023-07-02T04:48:40;97381.56;;;17.61;89.38
5609;BME280;2826;51.354;9.588;2023-07-02T04:51:06;97368.22;;;17.65;89.30
5609;BME280;2826;51.354;9.588;2023-07-02T04:53:33;97376.91;;;17.65;89.39
5609;BME280;2826;51.354;9.588;2023-07-02T04:55:59;97383.56;;;17.69;88.97
5609;BME280;2826;51.354;9.588;2023-07-02T04:58:26;97388.44;;;17.74;89.22
5609;BME280;2826;51.354;9.588;2023-07-02T05:00:53;97387.91;;;17.80;88.67
5609;BME280;2826;51.354;9.588;2023-07-02T05:03:21;97391.25;;;17.82;88.54
5609;BME280;2826;51.354;9.588;2023-07-02T05:05:48;97384.09;;;17.84;88.62
5609;BME280;2826;51.354;9.588;2023-07-02T05:08:14;97386.72;;;17.84;88.15
5609;BME280;2826;51.354;9.588;2023-07-02T05:10:41;97377.06;;;17.85;88.49
5609;BME280;2826;51.354;9.588;2023-07-02T05:13:08;97380.25;;;17.88;88.07
5609;BME280;2826;51.354;9.588;2023-07-02T05:15:34;97386.47;;;17.87;87.83
5609;BME280;2826;51.354;9.588;2023-07-02T05:18:01;97383.00;;;17.87;87.49
5609;BME280;2826;51.354;9.588;2023-07-02T05:20:29;97385.94;;;17.94;87.72
5609;BME280;2826;51.354;9.588;2023-07-02T05:22:56;97384.72;;;17.98;87.49
5609;BME280;2826;51.354;9.588;2023-07-02T05:25:22;97388.06;;;18.00;87.42
5609;BME280;2826;51.354;9.588;2023-07-02T05:27:49;97386.78;;;17.94;87.02
5609;BME280;2826;51.354;9.588;2023-07-02T05:30:16;97387.94;;;18.01;86.85
5609;BME280;2826;51.354;9.588;2023-07-02T05:32:42;97384.94;;;18.06;87.22
5609;BME280;2826;51.354;9.588;2023-07-02T05:35:09;97384.31;;;18.14;86.67
5609;BME280;2826;51.354;9.588;2023-07-02T05:37:37;97377.84;;;18.18;86.22
5609;BME280;2826;51.354;9.588;2023-07-02T05:40:05;97384.50;;;18.22;86.24
5609;BME280;2826;51.354;9.588;2023-07-02T05:42:32;97380.72;;;18.36;85.92
5609;BME280;2826;51.354;9.588;2023-07-02T05:44:58;97386.53;;;18.40;85.13
5609;BME280;2826;51.354;9.588;2023-07-02T05:47:25;97385.00;;;18.37;85.11
5609;BME280;2826;51.354;9.588;2023-07-02T05:49:52;97387.75;;;18.36;85.28
5609;BME280;2826;51.354;9.588;2023-07-02T05:52:19;97392.19;;;18.35;84.81
5609;BME280;2826;51.354;9.588;2023-07-02T05:54:46;97389.94;;;18.31;84.38
5609;BME280;2826;51.354;9.588;2023-07-02T05:57:13;97387.56;;;18.27;85.09
5609;BME280;2826;51.354;9.588;2023-07-02T05:59:40;97396.81;;;18.22;85.02
5609;BME280;2826;51.354;9.588;2023-07-02T06:02:06;97403.00;;;18.21;84.77
5609;BME280;2826;51.354;9.588;2023-07-02T06:04:33;97396.09;;;18.20;84.68
5609;BME280;2826;51.354;9.588;2023-07-02T06:07:01;97404.81;;;18.20;84.06
5609;BME280;2826;51.354;9.588;2023-07-02T06:09:28;97402.75;;;18.24;83.84
5609;BME280;2826;51.354;9.588;2023-07-02T06:11:55;97409.50;;;18.17;84.03
5609;BME280;2826;51.354;9.588;2023-07-02T06:14:22;97406.72;;;18.18;84.34
5609;BME280;2826;51.354;9.588;2023-07-02T06:16:50;97409.22;;;18.20;85.11
5609;BME280;2826;51.354;9.588;2023-07-02T06:19:17;97409.53;;;18.26;85.22
5609;BME280;2826;51.354;9.588;2023-07-02T06:21:44;97406.59;;;18.41;82.93
5609;BME280;2826;51.354;9.588;2023-07-02T06:24:11;97408.56;;;18.49;81.85
5609;BME280;2826;51.354;9.588;2023-07-02T06:26:37;97401.19;;;18.64;81.41
5609;BME280;2826;51.354;9.588;2023-07-02T06:29:05;97410.09;;;18.83;80.09
5609;BME280;2826;51.354;9.588;2023-07-02T06:31:32;97406.28;;;18.97;78.61
5609;BME280;2826;51.354;9.588;2023-07-02T06:33:58;97416.53;;;19.00;77.37
5609;BME280;2826;51.354;9.588;2023-07-02T06:36:25;97412.78;;;19.02;76.16
5609;BME280;2826;51.354;9.588;2023-07-02T06:38:52;97421.97;;;19.08;76.48
5609;BME280;2826;51.354;9.588;2023-07-02T06:41:18;97425.59;;;19.17;75.97
5609;BME280;2826;51.354;9.588;2023-07-02T06:43:45;97424.50;;;19.19;75.74
5609;BME280;2826;51.354;9.588;2023-07-02T06:46:13;97413.59;;;19.24;75.53
5609;BME280;2826;51.354;9.588;2023-07-02T06:48:40;97413.03;;;19.30;73.84
5609;BME280;2826;51.354;9.588;2023-07-02T06:51:06;97408.63;;;19.31;74.04
5609;BME280;2826;51.354;9.588;2023-07-02T06:53:33;97427.34;;;19.57;73.76
5609;BME280;2826;51.354;9.588;2023-07-02T06:56:00;97427.47;;;19.66;72.58
5609;BME280;2826;51.354;9.588;2023-07-02T06:58:26;97431.38;;;19.71;71.33
5609;BME280;2826;51.354;9.588;2023-07-02T07:00:53;97426.25;;;19.80;70.77
5609;BME280;2826;51.354;9.588;2023-07-02T07:03:21;97434.53;;;19.75;71.13
5609;BME280;2826;51.354;9.588;2023-07-02T07:05:48;97428.47;;;19.75;71.95
5609;BME280;2826;51.354;9.588;2023-07-02T07:08:15;97437.75;;;19.79;72.57
5609;BME280;2826;51.354;9.588;2023-07-02T07:10:42;97434.72;;;19.74;72.06
5609;BME280;2826;51.354;9.588;2023-07-02T07:13:10;97436.34;;;19.65;71.76
5609;BME280;2826;51.354;9.588;2023-07-02T07:15:37;97438.25;;;19.43;71.88
5609;BME280;2826;51.354;9.588;2023-07-02T07:18:04;97442.66;;;19.32;71.79
5609;BME280;2826;51.354;9.588;2023-07-02T07:20:33;97443.16;;;19.16;73.10
5609;BME280;2826;51.354;9.588;2023-07-02T07:23:01;97456.84;;;18.89;72.06
5609;BME280;2826;51.354;9.588;2023-07-02T07:25:28;97453.22;;;18.80;70.83
5609;BME280;2826;51.354;9.588;2023-07-02T07:27:55;97461.88;;;18.49;72.12
5609;BME280;2826;51.354;9.588;2023-07-02T07:30:21;97461.88;;;18.49;72.49
5609;BME280;2826;51.354;9.588;2023-07-02T07:32:49;97466.44;;;18.26;73.14
5609;BME280;2826;51.354;9.588;2023-07-02T07:35:16;97467.78;;;18.20;73.85
5609;BME280;2826;51.354;9.588;2023-07-02T07:37:44;97461.97;;;18.17;74.79
5609;BME280;2826;51.354;9.588;2023-07-02T07:40:11;97467.06;;;18.18;75.40
5609;BME280;2826;51.354;9.588;2023-07-02T07:42:38;97464.53;;;18.28;74.38
5609;BME280;2826;51.354;9.588;2023-07-02T07:45:05;97470.94;;;18.35;73.19
5609;BME280;2826;51.354;9.588;2023-07-02T07:47:33;97465.34;;;18.50;73.12
5609;BME280;2826;51.354;9.588;2023-07-02T07:49:59;97473.78;;;18.53;72.09
5609;BME280;2826;51.354;9.588;2023-07-02T07:52:27;97469.47;;;18.64;71.06
5609;BME280;2826;51.354;9.588;2023-07-02T07:54:55;97477.31;;;18.85;69.71
5609;BME280;2826;51.354;9.588;2023-07-02T07:57:22;97470.81;;;19.11;70.26
5609;BME280;2826;51.354;9.588;2023-07-02T07:59:49;97471.16;;;19.27;68.64
5609;BME280;2826;51.354;9.588;2023-07-02T08:02:15;97472.25;;;19.25;68.28
5609;BME280;2826;51.354;9.588;2023-07-02T08:04:42;97488.00;;;19.25;67.84
5609;BME280;2826;51.354;9.588;2023-07-02T08:07:09;97480.81;;;19.27;67.39
5609;BME280;2826;51.354;9.588;2023-07-02T08:09:35;97488.53;;;19.18;65.93
5609;BME280;2826;51.354;9.588;2023-07-02T08:12:04;97486.88;;;19.17;66.46
5609;BME280;2826;51.354;9.588;2023-07-02T08:14:31;97502.41;;;18.99;66.43
5609;BME280;2826;51.354;9.588;2023-07-02T08:16:57;97494.63;;;19.19;66.30
5609;BME280;2826;51.354;9.588;2023-07-02T08:19:24;97502.19;;;19.43;66.52
5609;BME280;2826;51.354;9.588;2023-07-02T08:21:51;97502.94;;;19.75;66.88
5609;BME280;2826;51.354;9.588;2023-07-02T08:24:17;97502.75;;;19.98;66.47
5609;BME280;2826;51.354;9.588;2023-07-02T08:26:44;97503.66;;;19.97;63.49
5609;BME280;2826;51.354;9.588;2023-07-02T08:29:13;97507.41;;;19.94;63.72
5609;BME280;2826;51.354;9.588;2023-07-02T08:31:40;97504.53;;;20.07;62.44
5609;BME280;2826;51.354;9.588;2023-07-02T08:34:07;97497.75;;;20.34;63.76
5609;BME280;2826;51.354;9.588;2023-07-02T08:36:33;97508.41;;;20.43;60.58
5609;BME280;2826;51.354;9.588;2023-07-02T08:39:00;97500.66;;;20.31;61.37
5609;BME280;2826;51.354;9.588;2023-07-02T08:41:27;97505.63;;;20.15;62.56
5609;BME280;2826;51.354;9.588;2023-07-02T08:43:55;97509.06;;;19.85;60.85
5609;BME280;2826;51.354;9.588;2023-07-02T08:46:24;97508.88;;;19.67;61.25
5609;BME280;2826;51.354;9.588;2023-07-02T08:48:51;97510.69;;;19.77;62.04
5609;BME280;2826;51.354;9.588;2023-07-02T08:51:18;97513.06;;;19.80;60.26
5609;BME280;2826;51.354;9.588;2023-07-02T08:53:44;97508.50;;;19.92;59.59
5609;BME280;2826;51.354;9.588;2023-07-02T08:56:11;97514.50;;;20.04;60.14
5609;BME280;2826;51.354;9.588;2023-07-02T08:58:39;97518.50;;;20.08;59.49
5609;BME280;2826;51.354;9.588;2023-07-02T09:01:07;97526.53;;;20.06;58.41
5609;BME280;2826;51.354;9.588;2023-07-02T09:03:36;97520.06;;;20.20;57.13
5609;BME280;2826;51.354;9.588;2023-07-02T09:06:03;97522.44;;;20.33;55.17
5609;BME280;2826;51.354;9.588;2023-07-02T09:08:30;97527.66;;;20.53;54.69
5609;BME280;2826;51.354;9.588;2023-07-02T09:11:06;97528.47;;;20.83;53.71
5609;BME280;2826;51.354;9.588;2023-07-02T09:13:42;97538.59;;;20.88;52.76
5609;BME280;2826;51.354;9.588;2023-07-02T09:16:09;97533.41;;;20.86;52.11
5609;BME280;2826;51.354;9.588;2023-07-02T09:18:37;97528.31;;;20.95;52.59
5609;BME280;2826;51.354;9.588;2023-07-02T09:21:03;97535.09;;;20.97;53.56
5609;BME280;2826;51.354;9.588;2023-07-02T09:23:34;97529.38;;;21.12;53.59
5609;BME280;2826;51.354;9.588;2023-07-02T09:26:01;97539.06;;;21.21;54.31
5609;BME280;2826;51.354;9.588;2023-07-02T09:28:28;97525.53;;;21.34;53.90
5609;BME280;2826;51.354;9.588;2023-07-02T09:30:56;97535.31;;;21.24;52.47
5609;BME280;2826;51.354;9.588;2023-07-02T09:33:23;97534.66;;;21.12;51.85
5609;BME280;2826;51.354;9.588;2023-07-02T09:35:52;97530.25;;;20.83;51.46
5609;BME280;2826;51.354;9.588;2023-07-02T09:38:19;97532.22;;;20.81;52.76
5609;BME280;2826;51.354;9.588;2023-07-02T09:40:47;97522.72;;;21.08;53.56
5609;BME280;2826;51.354;9.588;2023-07-02T09:43:15;97531.69;;;21.25;52.44
5609;BME280;2826;51.354;9.588;2023-07-02T09:45:43;97531.03;;;21.51;52.15
5609;BME280;2826;51.354;9.588;2023-07-02T09:48:12;97544.44;;;21.30;49.14
5609;BME280;2826;51.354;9.588;2023-07-02T09:50:40;97543.78;;;21.18;47.64
5609;BME280;2826;51.354;9.588;2023-07-02T09:53:09;97540.19;;;21.09;48.25
5609;BME280;2826;51.354;9.588;2023-07-02T09:55:36;97536.59;;;21.10;48.94
5609;BME280;2826;51.354;9.588;2023-07-02T09:58:03;97543.50;;;21.11;49.03
5609;BME280;2826;51.354;9.588;2023-07-02T10:00:29;97543.38;;;21.12;49.44
5609;BME280;2826;51.354;9.588;2023-07-02T10:02:56;97535.09;;;21.35;49.03
5609;BME280;2826;51.354;9.588;2023-07-02T10:05:27;97555.09;;;21.66;47.86
5609;BME280;2826;51.354;9.588;2023-07-02T10:07:55;97537.28;;;21.50;45.72
5609;BME280;2826;51.354;9.588;2023-07-02T10:10:28;97534.31;;;21.53;46.25
5609;BME280;2826;51.354;9.588;2023-07-02T10:12:55;97532.00;;;21.50;46.80
5609;BME280;2826;51.354;9.588;2023-07-02T10:15:25;97539.19;;;21.58;45.23
5609;BME280;2826;51.354;9.588;2023-07-02T10:17:55;97542.56;;;21.50;46.24
5609;BME280;2826;51.354;9.588;2023-07-02T10:20:31;97545.25;;;21.58;47.06
5609;BME280;2826;51.354;9.588;2023-07-02T10:23:00;97535.31;;;21.52;46.13
5609;BME280;2826;51.354;9.588;2023-07-02T10:25:29;97552.66;;;21.54;44.01
5609;BME280;2826;51.354;9.588;2023-07-02T10:27:56;97543.56;;;21.67;44.89
5609;BME280;2826;51.354;9.588;2023-07-02T10:30:36;97556.19;;;21.73;43.63
5609;BME280;2826;51.354;9.588;2023-07-02T10:33:10;97558.16;;;21.61;44.00
5609;BME280;2826;51.354;9.588;2023-07-02T10:35:37;97557.28;;;21.71;44.08
5609;BME280;2826;51.354;9.588;2023-07-02T10:38:03;97555.53;;;21.89;43.27
5609;BME280;2826;51.354;9.588;2023-07-02T10:40:32;97553.09;;;22.06;42.49
5609;BME280;2826;51.354;9.588;2023-07-02T10:42:59;97550.16;;;22.09;42.17
5609;BME280;2826;51.354;9.588;2023-07-02T10:45:33;97522.19;;;21.70;42.61
5609;BME280;2826;51.354;9.588;2023-07-02T10:48:02;97546.59;;;22.37;43.88
5609;BME280;2826;51.354;9.588;2023-07-02T10:50:30;97541.56;;;22.88;43.74
5609;BME280;2826;51.354;9.588;2023-07-02T10:52:57;97543.47;;;23.31;42.57
5609;BME280;2826;51.354;9.588;2023-07-02T10:55:24;97534.09;;;23.10;41.48
5609;BME280;2826;51.354;9.588;2023-07-02T10:58:04;97564.06;;;22.92;40.96
5609;BME280;2826;51.354;9.588;2023-07-02T11:00:31;97555.16;;;22.93;42.26
5609;BME280;2826;51.354;9.588;2023-07-02T11:02:58;97559.53;;;23.03;42.90
5609;BME280;2826;51.354;9.588;2023-07-02T11:05:25;97555.63;;;22.89;41.34
5609;BME280;2826;51.354;9.588;2023-07-02T11:07:51;97542.91;;;22.66;42.23
5609;BME280;2826;51.354;9.588;2023-07-02T11:10:22;97553.47;;;22.84;41.55
5609;BME280;2826;51.354;9.588;2023-07-02T11:12:49;97556.53;;;23.06;42.58
5609;BME280;2826;51.354;9.588;2023-07-02T11:15:18;97561.53;;;23.09;41.60
5609;BME280;2826;51.354;9.588;2023-07-02T11:17:44;97568.84;;;22.70;41.59
5609;BME280;2826;51.354;9.588;2023-07-02T11:20:12;97559.56;;;22.30;41.93
5609;BME280;2826;51.354;9.588;2023-07-02T11:22:39;97564.41;;;22.16;42.90
5609;BME280;2826;51.354;9.588;2023-07-02T11:25:13;97560.69;;;22.27;44.45
5609;BME280;2826;51.354;9.588;2023-07-02T11:27:40;97564.25;;;22.00;42.53
5609;BME280;2826;51.354;9.588;2023-07-02T11:30:07;97578.06;;;22.12;43.61
5609;BME280;2826;51.354;9.588;2023-07-02T11:32:46;97563.06;;;22.49;44.25
5609;BME280;2826;51.354;9.588;2023-07-02T11:35:15;97566.97;;;22.81;44.17
5609;BME280;2826;51.354;9.588;2023-07-02T11:37:42;97567.34;;;22.86;41.15
5609;BME280;2826;51.354;9.588;2023-07-02T11:40:09;97562.63;;;22.98;42.30
5609;BME280;2826;51.354;9.588;2023-07-02T11:42:50;97565.38;;;23.15;42.17
5609;BME280;2826;51.354;9.588;2023-07-02T11:45:31;97564.59;;;22.96;41.19
5609;BME280;2826;51.354;9.588;2023-07-02T11:47:59;97570.13;;;22.84;42.77
5609;BME280;2826;51.354;9.588;2023-07-02T11:50:25;97573.97;;;22.90;42.38
5609;BME280;2826;51.354;9.588;2023-07-02T11:52:52;97564.13;;;23.01;41.25
5609;BME280;2826;51.354;9.588;2023-07-02T11:55:19;97560.25;;;23.83;41.27
5609;BME280;2826;51.354;9.588;2023-07-02T11:57:46;97559.28;;;24.09;39.97
5609;BME280;2826;51.354;9.588;2023-07-02T12:00:14;97564.59;;;24.09;41.20
5609;BME280;2826;51.354;9.588;2023-07-02T12:02:42;97565.75;;;23.55;39.93
5609;BME280;2826;51.354;9.588;2023-07-02T12:05:10;97570.47;;;22.90;40.74
5609;BME280;2826;51.354;9.588;2023-07-02T12:07:37;97569.78;;;22.43;41.82
5609;BME280;2826;51.354;9.588;2023-07-02T12:10:04;97578.50;;;22.07;43.33
5609;BME280;2826;51.354;9.588;2023-07-02T12:12:31;97580.47;;;22.05;44.08
5609;BME280;2826;51.354;9.588;2023-07-02T12:14:57;97583.06;;;22.15;45.25
5609;BME280;2826;51.354;9.588;2023-07-02T12:17:24;97594.31;;;22.35;45.80
5609;BME280;2826;51.354;9.588;2023-07-02T12:19:50;97581.69;;;22.47;43.28
5609;BME280;2826;51.354;9.588;2023-07-02T12:22:18;97568.13;;;22.60;42.99
5609;BME280;2826;51.354;9.588;2023-07-02T12:24:47;97575.63;;;22.91;44.25
5609;BME280;2826;51.354;9.588;2023-07-02T12:27:15;97574.59;;;23.37;42.66
5609;BME280;2826;51.354;9.588;2023-07-02T12:29:42;97579.50;;;23.32;41.89
5609;BME280;2826;51.354;9.588;2023-07-02T12:32:08;97571.06;;;23.02;41.92
5609;BME280;2826;51.354;9.588;2023-07-02T12:34:35;97561.69;;;22.81;43.05
5609;BME280;2826;51.354;9.588;2023-07-02T12:37:02;97578.41;;;22.63;43.55
5609;BME280;2826;51.354;9.588;2023-07-02T12:39:30;97583.88;;;22.52;43.56
5609;BME280;2826;51.354;9.588;2023-07-02T12:41:57;97580.56;;;22.50;43.01
5609;BME280;2826;51.354;9.588;2023-07-02T12:44:23;97584.34;;;22.47;43.50
5609;BME280;2826;51.354;9.588;2023-07-02T12:46:50;97579.38;;;22.62;43.20
5609;BME280;2826;51.354;9.588;2023-07-02T12:49:16;97587.09;;;23.00;43.70
5609;BME280;2826;51.354;9.588;2023-07-02T12:51:43;97578.28;;;23.18;42.93
5609;BME280;2826;51.354;9.588;2023-07-02T12:54:10;97590.31;;;23.12;41.85
5609;BME280;2826;51.354;9.588;2023-07-02T12:56:38;97580.41;;;23.14;42.44
5609;BME280;2826;51.354;9.588;2023-07-02T12:59:05;97590.53;;;23.19;42.44
5609;BME280;2826;51.354;9.588;2023-07-02T13:01:31;97582.13;;;23.50;42.59
5609;BME280;2826;51.354;9.588;2023-07-02T13:03:58;97588.22;;;23.42;42.98
5609;BME280;2826;51.354;9.588;2023-07-02T13:06:24;97586.03;;;23.38;42.23
5609;BME280;2826;51.354;9.588;2023-07-02T13:08:51;97585.72;;;23.41;41.28
5609;BME280;2826;51.354;9.588;2023-07-02T13:11:18;97588.97;;;23.34;42.68
5609;BME280;2826;51.354;9.588;2023-07-02T13:13:46;97583.06;;;23.41;42.84
5609;BME280;2826;51.354;9.588;2023-07-02T13:16:13;97567.06;;;23.24;42.85
5609;BME280;2826;51.354;9.588;2023-07-02T13:18:39;97596.00;;;23.52;42.01
5609;BME280;2826;51.354;9.588;2023-07-02T13:21:06;97598.81;;;23.51;42.83
5609;BME280;2826;51.354;9.588;2023-07-02T13:23:32;97598.38;;;23.64;42.44